sensor_id;sensor_type;location;lat;lon;timestamp;P1;durP1;ratioP1;P2;durP2;ratioP2
27313;SDS011;14800;48.174;9.798;2023-08-06T00:00:05;1.65;;;1.27;;
27313;SDS011;14800;48.174;9.798;2023-08-06T00:02:32;2.22;;;1.40;;
27313;SDS011;14800;48.174;9.798;2023-08-06T00:04:57;1.60;;;1.50;;
27313;SDS011;14800;48.174;9.798;2023-08-06T00:07:23;1.70;;;1.60;;
27313;SDS011;14800;48.174;9.798;2023-08-06T00:09:48;1.63;;;1.50;;
27313;SDS011;14800;48.174;9.798;2023-08-06T00:12:14;1.60;;;1.50;;
27313;SDS011;14800;48.174;9.798;2023-08-06T00:14:39;1.48;;;1.38;;
27313;SDS011;14800;48.174;9.798;2023-08-06T00:17:05;1.92;;;1.40;;
27313;SDS011;14800;48.174;9.798;2023-08-06T00:19:31;2.10;;;1.63;;
27313;SDS011;14800;48.174;9.798;2023-08-06T00:21:57;1.83;;;1.60;;
27313;SDS011;14800;48.174;9.798;2023-08-06T00:24:23;1.67;;;1.58;;
27313;SDS011;14800;48.174;9.798;2023-08-06T00:26:48;2.00;;;1.80;;
27313;SDS011;14800;48.174;9.798;2023-08-06T00:29:14;1.85;;;1.75;;
27313;SDS011;14800;48.174;9.798;2023-08-06T00:31:39;1.63;;;1.52;;
27313;SDS011;14800;48.174;9.798;2023-08-06T00:34:05;2.13;;;1.90;;
27313;SDS011;14800;48.174;9.798;2023-08-06T00:36:31;2.08;;;1.90;;
27313;SDS011;14800;48.174;9.798;2023-08-06T00:38:56;1.90;;;1.70;;
27313;SDS011;14800;48.174;9.798;2023-08-06T00:41:22;3.13;;;1.90;;
27313;SDS011;14800;48.174;9.798;2023-08-06T00:43:47;2.80;;;2.00;;
27313;SDS011;14800;48.174;9.798;2023-08-06T00:46:13;2.08;;;1.73;;
27313;SDS011;14800;48.174;9.798;2023-08-06T00:48:39;1.90;;;1.80;;
27313;SDS011;14800;48.174;9.798;2023-08-06T00:51:06;2.45;;;2.08;;
27313;SDS011;14800;48.174;9.798;2023-08-06T00:53:33;1.95;;;1.85;;
27313;SDS011;14800;48.174;9.798;2023-08-06T00:55:59;2.83;;;2.03;;
27313;SDS011;14800;48.174;9.798;2023-08-06T00:58:25;2.30;;;2.10;;
27313;SDS011;14800;48.174;9.798;2023-08-06T01:00:51;2.38;;;2.13;;
27313;SDS011;14800;48.174;9.798;2023-08-06T01:03:16;2.15;;;2.05;;
27313;SDS011;14800;48.174;9.798;2023-08-06T01:05:42;1.90;;;1.80;;
27313;SDS011;14800;48.174;9.798;2023-08-06T01:13:47;2.33;;;2.22;;
27313;SDS011;14800;48.174;9.798;2023-08-06T01:16:17;2.63;;;2.42;;
27313;SDS011;14800;48.174;9.798;2023-08-06T01:18:46;4.35;;;2.75;;
27313;SDS011;14800;48.174;9.798;2023-08-06T01:21:14;3.75;;;2.83;;
27313;SDS011;14800;48.174;9.798;2023-08-06T01:23:41;3.40;;;2.60;;
27313;SDS011;14800;48.174;9.798;2023-08-06T01:26:13;2.88;;;2.67;;
27313;SDS011;14800;48.174;9.798;2023-08-06T01:28:42;2.92;;;2.60;;
27313;SDS011;14800;48.174;9.798;2023-08-06T01:31:24;3.40;;;2.67;;
27313;SDS011;14800;48.174;9.798;2023-08-06T01:33:59;2.65;;;2.45;;
27313;SDS011;14800;48.174;9.798;2023-08-06T01:36:27;2.70;;;2.50;;
27313;SDS011;14800;48.174;9.798;2023-08-06T01:38:53;2.75;;;2.55;;
27313;SDS011;14800;48.174;9.798;2023-08-06T01:41:19;2.50;;;2.30;;
27313;SDS011;14800;48.174;9.798;2023-08-06T01:43:45;2.80;;;2.30;;
27313;SDS011;14800;48.174;9.798;2023-08-06T01:46:11;2.75;;;2.33;;
27313;SDS011;14800;48.174;9.798;2023-08-06T01:48:36;5.68;;;2.47;;
27313;SDS011;14800;48.174;9.798;2023-08-06T01:51:05;2.90;;;2.60;;
27313;SDS011;14800;48.174;9.798;2023-08-06T01:53:31;2.25;;;2.15;;
27313;SDS011;14800;48.174;9.798;2023-08-06T01:55:57;3.15;;;2.38;;
27313;SDS011;14800;48.174;9.798;2023-08-06T01:58:23;2.65;;;2.45;;
27313;SDS011;14800;48.174;9.798;2023-08-06T02:00:48;2.22;;;2.03;;
27313;SDS011;14800;48.174;9.798;2023-08-06T02:03:14;2.55;;;2.22;;
27313;SDS011;14800;48.174;9.798;2023-08-06T02:05:40;3.42;;;2.50;;
27313;SDS011;14800;48.174;9.798;2023-08-06T02:08:05;2.60;;;2.40;;
27313;SDS011;14800;48.174;9.798;2023-08-06T02:10:31;2.80;;;2.55;;
27313;SDS011;14800;48.174;9.798;2023-08-06T02:12:57;3.38;;;2.42;;
27313;SDS011;14800;48.174;9.798;2023-08-06T02:15:23;2.70;;;2.50;;
27313;SDS011;14800;48.174;9.798;2023-08-06T02:17:48;3.00;;;2.70;;
27313;SDS011;14800;48.174;9.798;2023-08-06T02:20:14;2.78;;;2.58;;
27313;SDS011;14800;48.174;9.798;2023-08-06T02:22:39;2.63;;;2.40;;
27313;SDS011;14800;48.174;9.798;2023-08-06T02:25:05;3.45;;;2.47;;
27313;SDS011;14800;48.174;9.798;2023-08-06T02:27:31;2.58;;;2.38;;
27313;SDS011;14800;48.174;9.798;2023-08-06T02:29:56;2.45;;;2.25;;
27313;SDS011;14800;48.174;9.798;2023-08-06T02:32:22;2.95;;;2.33;;
27313;SDS011;14800;48.174;9.798;2023-08-06T02:34:47;2.78;;;2.58;;
27313;SDS011;14800;48.174;9.798;2023-08-06T02:37:13;2.55;;;2.35;;
27313;SDS011;14800;48.174;9.798;2023-08-06T02:39:38;2.22;;;2.13;;
27313;SDS011;14800;48.174;9.798;2023-08-06T02:42:08;2.58;;;2.38;;
27313;SDS011;14800;48.174;9.798;2023-08-06T02:44:34;2.42;;;2.22;;
27313;SDS011;14800;48.174;9.798;2023-08-06T02:47:00;2.53;;;2.10;;
27313;SDS011;14800;48.174;9.798;2023-08-06T02:49:26;2.05;;;1.95;;
27313;SDS011;14800;48.174;9.798;2023-08-06T02:51:51;4.60;;;2.00;;
27313;SDS011;14800;48.174;9.798;2023-08-06T02:54:17;3.42;;;1.70;;
27313;SDS011;14800;48.174;9.798;2023-08-06T02:56:44;1.70;;;1.60;;
27313;SDS011;14800;48.174;9.798;2023-08-06T02:59:10;2.00;;;1.70;;
27313;SDS011;14800;48.174;9.798;2023-08-06T03:01:36;2.08;;;1.50;;
27313;SDS011;14800;48.174;9.798;2023-08-06T03:04:01;1.63;;;1.20;;
27313;SDS011;14800;48.174;9.798;2023-08-06T03:06:27;2.08;;;1.55;;
27313;SDS011;14800;48.174;9.798;2023-08-06T03:08:53;1.48;;;1.35;;
27313;SDS011;14800;48.174;9.798;2023-08-06T03:11:19;1.70;;;1.58;;
27313;SDS011;14800;48.174;9.798;2023-08-06T03:13:44;1.40;;;1.30;;
27313;SDS011;14800;48.174;9.798;2023-08-06T03:16:10;1.33;;;1.23;;
27313;SDS011;14800;48.174;9.798;2023-08-06T03:18:35;1.45;;;1.30;;
27313;SDS011;14800;48.174;9.798;2023-08-06T03:21:01;1.50;;;1.40;;
27313;SDS011;14800;48.174;9.798;2023-08-06T03:23:26;3.75;;;1.30;;
27313;SDS011;14800;48.174;9.798;2023-08-06T03:25:52;2.05;;;1.30;;
27313;SDS011;14800;48.174;9.798;2023-08-06T03:28:18;2.10;;;1.50;;
27313;SDS011;14800;48.174;9.798;2023-08-06T03:30:43;3.15;;;1.67;;
27313;SDS011;14800;48.174;9.798;2023-08-06T03:33:09;1.60;;;1.40;;
27313;SDS011;14800;48.174;9.798;2023-08-06T03:35:34;2.95;;;1.50;;
27313;SDS011;14800;48.174;9.798;2023-08-06T03:38:00;2.78;;;1.70;;
27313;SDS011;14800;48.174;9.798;2023-08-06T03:40:26;1.65;;;1.50;;
27313;SDS011;14800;48.174;9.798;2023-08-06T03:42:51;2.28;;;1.60;;
27313;SDS011;14800;48.174;9.798;2023-08-06T03:45:17;2.78;;;1.50;;
27313;SDS011;14800;48.174;9.798;2023-08-06T03:47:42;1.70;;;1.60;;
27313;SDS011;14800;48.174;9.798;2023-08-06T03:50:08;1.50;;;1.40;;
27313;SDS011;14800;48.174;9.798;2023-08-06T03:52:34;2.10;;;1.67;;
27313;SDS011;14800;48.174;9.798;2023-08-06T03:54:59;2.63;;;1.48;;
27313;SDS011;14800;48.174;9.798;2023-08-06T03:57:25;1.70;;;1.60;;
27313;SDS011;14800;48.174;9.798;2023-08-06T03:59:50;3.30;;;1.70;;
27313;SDS011;14800;48.174;9.798;2023-08-06T04:02:16;2.55;;;1.63;;
27313;SDS011;14800;48.174;9.798;2023-08-06T04:04:41;3.28;;;1.90;;
27313;SDS011;14800;48.174;9.798;2023-08-06T04:07:07;2.20;;;2.03;;
27313;SDS011;14800;48.174;9.798;2023-08-06T04:09:33;3.60;;;1.98;;
27313;SDS011;14800;48.174;9.798;2023-08-06T04:11:58;2.20;;;1.98;;
27313;SDS011;14800;48.174;9.798;2023-08-06T04:14:26;3.53;;;2.10;;
27313;SDS011;14800;48.174;9.798;2023-08-06T04:16:52;2.10;;;1.90;;
27313;SDS011;14800;48.174;9.798;2023-08-06T04:19:18;3.28;;;1.88;;
27313;SDS011;14800;48.174;9.798;2023-08-06T04:21:43;2.22;;;1.80;;
27313;SDS011;14800;48.174;9.798;2023-08-06T04:24:09;2.40;;;2.05;;
27313;SDS011;14800;48.174;9.798;2023-08-06T04:26:35;2.20;;;2.00;;
27313;SDS011;14800;48.174;9.798;2023-08-06T04:29:00;2.03;;;1.83;;
27313;SDS011;14800;48.174;9.798;2023-08-06T04:31:26;2.47;;;1.70;;
27313;SDS011;14800;48.174;9.798;2023-08-06T04:33:51;1.75;;;1.65;;
27313;SDS011;14800;48.174;9.798;2023-08-06T04:36:17;2.03;;;1.88;;
27313;SDS011;14800;48.174;9.798;2023-08-06T04:38:42;2.67;;;1.67;;
27313;SDS011;14800;48.174;9.798;2023-08-06T04:41:10;2.63;;;1.70;;
27313;SDS011;14800;48.174;9.798;2023-08-06T04:43:36;1.95;;;1.77;;
27313;SDS011;14800;48.174;9.798;2023-08-06T04:46:02;4.25;;;1.75;;
27313;SDS011;14800;48.174;9.798;2023-08-06T04:48:27;1.73;;;1.63;;
27313;SDS011;14800;48.174;9.798;2023-08-06T04:50:53;2.00;;;1.80;;
27313;SDS011;14800;48.174;9.798;2023-08-06T04:53:19;2.20;;;1.90;;
27313;SDS011;14800;48.174;9.798;2023-08-06T04:55:45;2.42;;;1.60;;
27313;SDS011;14800;48.174;9.798;2023-08-06T04:58:12;1.73;;;1.63;;
27313;SDS011;14800;48.174;9.798;2023-08-06T05:00:38;2.65;;;1.60;;
27313;SDS011;14800;48.174;9.798;2023-08-06T05:03:04;3.40;;;1.58;;
27313;SDS011;14800;48.174;9.798;2023-08-06T05:05:30;2.72;;;1.40;;
27313;SDS011;14800;48.174;9.798;2023-08-06T05:07:56;2.10;;;1.70;;
27313;SDS011;14800;48.174;9.798;2023-08-06T05:10:24;3.10;;;1.58;;
27313;SDS011;14800;48.174;9.798;2023-08-06T05:12:50;1.88;;;1.20;;
27313;SDS011;14800;48.174;9.798;2023-08-06T05:15:16;3.67;;;1.55;;
27313;SDS011;14800;48.174;9.798;2023-08-06T05:17:42;1.65;;;1.25;;
27313;SDS011;14800;48.174;9.798;2023-08-06T05:20:07;1.30;;;1.20;;
27313;SDS011;14800;48.174;9.798;2023-08-06T05:22:33;1.77;;;1.30;;
27313;SDS011;14800;48.174;9.798;2023-08-06T05:24:59;1.88;;;1.40;;
27313;SDS011;14800;48.174;9.798;2023-08-06T05:27:24;2.42;;;1.27;;
27313;SDS011;14800;48.174;9.798;2023-08-06T05:29:50;1.95;;;1.20;;
27313;SDS011;14800;48.174;9.798;2023-08-06T05:32:21;1.45;;;1.10;;
27313;SDS011;14800;48.174;9.798;2023-08-06T05:34:47;1.67;;;0.90;;
27313;SDS011;14800;48.174;9.798;2023-08-06T05:37:13;1.10;;;1.00;;
27313;SDS011;14800;48.174;9.798;2023-08-06T05:39:38;1.30;;;1.17;;
27313;SDS011;14800;48.174;9.798;2023-08-06T05:42:04;1.75;;;0.90;;
27313;SDS011;14800;48.174;9.798;2023-08-06T05:44:30;2.90;;;0.98;;
27313;SDS011;14800;48.174;9.798;2023-08-06T05:46:55;1.48;;;0.80;;
27313;SDS011;14800;48.174;9.798;2023-08-06T05:49:21;1.27;;;0.82;;
27313;SDS011;14800;48.174;9.798;2023-08-06T05:51:47;1.10;;;0.85;;
27313;SDS011;14800;48.174;9.798;2023-08-06T05:54:13;2.20;;;0.77;;
27313;SDS011;14800;48.174;9.798;2023-08-06T05:56:38;1.08;;;0.85;;
27313;SDS011;14800;48.174;9.798;2023-08-06T05:59:04;2.17;;;0.90;;
27313;SDS011;14800;48.174;9.798;2023-08-06T06:01:30;3.10;;;0.70;;
27313;SDS011;14800;48.174;9.798;2023-08-06T06:03:55;1.08;;;0.70;;
27313;SDS011;14800;48.174;9.798;2023-08-06T06:06:21;1.25;;;1.00;;
27313;SDS011;14800;48.174;9.798;2023-08-06T06:08:47;1.33;;;0.80;;
27313;SDS011;14800;48.174;9.798;2023-08-06T06:11:12;2.03;;;0.90;;
27313;SDS011;14800;48.174;9.798;2023-08-06T06:13:38;1.75;;;0.90;;
27313;SDS011;14800;48.174;9.798;2023-08-06T06:16:03;0.82;;;0.70;;
27313;SDS011;14800;48.174;9.798;2023-08-06T06:18:30;1.13;;;0.70;;
27313;SDS011;14800;48.174;9.798;2023-08-06T06:20:55;0.80;;;0.60;;
27313;SDS011;14800;48.174;9.798;2023-08-06T06:23:21;0.68;;;0.60;;
27313;SDS011;14800;48.174;9.798;2023-08-06T06:25:47;1.67;;;0.70;;
27313;SDS011;14800;48.174;9.798;2023-08-06T06:28:14;1.52;;;0.60;;
27313;SDS011;14800;48.174;9.798;2023-08-06T06:30:40;0.82;;;0.60;;
27313;SDS011;14800;48.174;9.798;2023-08-06T06:33:06;2.53;;;0.52;;
27313;SDS011;14800;48.174;9.798;2023-08-06T06:35:33;0.68;;;0.43;;
27313;SDS011;14800;48.174;9.798;2023-08-06T06:37:59;3.63;;;0.90;;
27313;SDS011;14800;48.174;9.798;2023-08-06T06:40:25;1.38;;;0.55;;
27313;SDS011;14800;48.174;9.798;2023-08-06T06:42:51;1.15;;;0.68;;
27313;SDS011;14800;48.174;9.798;2023-08-06T06:45:16;1.25;;;0.50;;
27313;SDS011;14800;48.174;9.798;2023-08-06T06:47:42;1.25;;;0.52;;
27313;SDS011;14800;48.174;9.798;2023-08-06T06:50:08;1.02;;;0.60;;
27313;SDS011;14800;48.174;9.798;2023-08-06T06:52:34;1.38;;;0.70;;
27313;SDS011;14800;48.174;9.798;2023-08-06T06:54:59;1.90;;;0.70;;
27313;SDS011;14800;48.174;9.798;2023-08-06T06:57:25;1.08;;;0.43;;
27313;SDS011;14800;48.174;9.798;2023-08-06T06:59:51;0.60;;;0.47;;
27313;SDS011;14800;48.174;9.798;2023-08-06T07:02:16;1.67;;;0.60;;
27313;SDS011;14800;48.174;9.798;2023-08-06T07:04:42;0.93;;;0.65;;
27313;SDS011;14800;48.174;9.798;2023-08-06T07:07:07;2.05;;;0.50;;
27313;SDS011;14800;48.174;9.798;2023-08-06T07:09:33;0.95;;;0.70;;
27313;SDS011;14800;48.174;9.798;2023-08-06T07:11:59;0.68;;;0.60;;
27313;SDS011;14800;48.174;9.798;2023-08-06T07:14:25;0.73;;;0.40;;
27313;SDS011;14800;48.174;9.798;2023-08-06T07:16:51;1.08;;;0.40;;
27313;SDS011;14800;48.174;9.798;2023-08-06T07:19:16;0.88;;;0.43;;
27313;SDS011;14800;48.174;9.798;2023-08-06T07:21:42;1.08;;;0.40;;
27313;SDS011;14800;48.174;9.798;2023-08-06T07:24:07;0.50;;;0.28;;
27313;SDS011;14800;48.174;9.798;2023-08-06T07:26:33;1.10;;;0.57;;
27313;SDS011;14800;48.174;9.798;2023-08-06T07:28:58;0.85;;;0.30;;
27313;SDS011;14800;48.174;9.798;2023-08-06T07:31:24;0.20;;;0.17;;
27313;SDS011;14800;48.174;9.798;2023-08-06T07:33:50;0.40;;;0.20;;
27313;SDS011;14800;48.174;9.798;2023-08-06T07:36:16;0.65;;;0.20;;
27313;SDS011;14800;48.174;9.798;2023-08-06T07:38:41;0.32;;;0.20;;
27313;SDS011;14800;48.174;9.798;2023-08-06T07:41:08;1.55;;;0.30;;
27313;SDS011;14800;48.174;9.798;2023-08-06T07:43:34;1.27;;;0.17;;
27313;SDS011;14800;48.174;9.798;2023-08-06T07:46:00;0.55;;;0.10;;
27313;SDS011;14800;48.174;9.798;2023-08-06T07:48:26;0.73;;;0.20;;
27313;SDS011;14800;48.174;9.798;2023-08-06T07:50:56;1.75;;;0.20;;
27313;SDS011;14800;48.174;9.798;2023-08-06T07:53:22;1.30;;;0.10;;
27313;SDS011;14800;48.174;9.798;2023-08-06T07:55:49;1.05;;;0.10;;
27313;SDS011;14800;48.174;9.798;2023-08-06T07:58:16;0.68;;;0.50;;
27313;SDS011;14800;48.174;9.798;2023-08-06T08:00:42;0.80;;;0.10;;
27313;SDS011;14800;48.174;9.798;2023-08-06T08:03:10;0.75;;;0.10;;
27313;SDS011;14800;48.174;9.798;2023-08-06T08:05:37;0.93;;;0.10;;
27313;SDS011;14800;48.174;9.798;2023-08-06T08:08:03;0.80;;;0.20;;
27313;SDS011;14800;48.174;9.798;2023-08-06T08:10:28;4.18;;;0.20;;
27313;SDS011;14800;48.174;9.798;2023-08-06T08:12:54;0.75;;;0.15;;
27313;SDS011;14800;48.174;9.798;2023-08-06T08:15:19;0.35;;;0.20;;
27313;SDS011;14800;48.174;9.798;2023-08-06T08:17:45;0.45;;;0.10;;
27313;SDS011;14800;48.174;9.798;2023-08-06T08:20:12;0.10;;;0.10;;
27313;SDS011;14800;48.174;9.798;2023-08-06T08:22:38;0.30;;;0.10;;
27313;SDS011;14800;48.174;9.798;2023-08-06T08:25:04;0.40;;;0.10;;
27313;SDS011;14800;48.174;9.798;2023-08-06T08:27:30;0.40;;;0.10;;
27313;SDS011;14800;48.174;9.798;2023-08-06T08:29:56;0.40;;;0.20;;
27313;SDS011;14800;48.174;9.798;2023-08-06T08:32:21;0.13;;;0.10;;
27313;SDS011;14800;48.174;9.798;2023-08-06T08:34:47;0.55;;;0.10;;
27313;SDS011;14800;48.174;9.798;2023-08-06T08:37:13;3.08;;;0.20;;
27313;SDS011;14800;48.174;9.798;2023-08-06T08:39:38;0.80;;;0.20;;
27313;SDS011;14800;48.174;9.798;2023-08-06T08:42:05;0.65;;;0.10;;
27313;SDS011;14800;48.174;9.798;2023-08-06T08:44:32;0.57;;;0.10;;
27313;SDS011;14800;48.174;9.798;2023-08-06T08:46:59;0.73;;;0.15;;
27313;SDS011;14800;48.174;9.798;2023-08-06T08:49:24;0.30;;;0.10;;
27313;SDS011;14800;48.174;9.798;2023-08-06T08:51:52;0.25;;;0.10;;
27313;SDS011;14800;48.174;9.798;2023-08-06T08:54:19;0.82;;;0.17;;
27313;SDS011;14800;48.174;9.798;2023-08-06T08:56:47;0.30;;;0.08;;
27313;SDS011;14800;48.174;9.798;2023-08-06T08:59:13;0.40;;;0.10;;
27313;SDS011;14800;48.174;9.798;2023-08-06T09:01:38;0.10;;;0.00;;
27313;SDS011;14800;48.174;9.798;2023-08-06T09:04:06;1.08;;;0.10;;
27313;SDS011;14800;48.174;9.798;2023-08-06T09:06:33;3.60;;;0.40;;
27313;SDS011;14800;48.174;9.798;2023-08-06T09:09:06;0.52;;;0.10;;
27313;SDS011;14800;48.174;9.798;2023-08-06T09:11:37;0.10;;;0.10;;
27313;SDS011;14800;48.174;9.798;2023-08-06T09:14:08;0.10;;;0.10;;
27313;SDS011;14800;48.174;9.798;2023-08-06T09:16:34;0.35;;;0.13;;
27313;SDS011;14800;48.174;9.798;2023-08-06T09:19:09;0.40;;;0.13;;
27313;SDS011;14800;48.174;9.798;2023-08-06T09:21:40;0.40;;;0.10;;
27313;SDS011;14800;48.174;9.798;2023-08-06T09:24:09;0.52;;;0.10;;
27313;SDS011;14800;48.174;9.798;2023-08-06T09:26:36;0.40;;;0.10;;
27313;SDS011;14800;48.174;9.798;2023-08-06T09:29:06;0.43;;;0.00;;
27313;SDS011;14800;48.174;9.798;2023-08-06T09:31:42;0.17;;;0.10;;
27313;SDS011;14800;48.174;9.798;2023-08-06T09:34:20;0.82;;;0.10;;
27313;SDS011;14800;48.174;9.798;2023-08-06T09:36:56;0.68;;;0.10;;
27313;SDS011;14800;48.174;9.798;2023-08-06T09:39:30;0.65;;;0.00;;
27313;SDS011;14800;48.174;9.798;2023-08-06T09:42:00;0.80;;;0.10;;
27313;SDS011;14800;48.174;9.798;2023-08-06T09:44:27;1.00;;;0.10;;
27313;SDS011;14800;48.174;9.798;2023-08-06T09:49:40;0.10;;;0.00;;
27313;SDS011;14800;48.174;9.798;2023-08-06T09:52:11;1.33;;;0.13;;
27313;SDS011;14800;48.174;9.798;2023-08-06T09:54:37;0.30;;;0.10;;
27313;SDS011;14800;48.174;9.798;2023-08-06T09:57:03;0.77;;;0.00;;
27313;SDS011;14800;48.174;9.798;2023-08-06T09:59:30;0.40;;;0.05;;
27313;SDS011;14800;48.174;9.798;2023-08-06T10:01:57;0.20;;;0.10;;
27313;SDS011;14800;48.174;9.798;2023-08-06T10:04:23;0.10;;;0.10;;
27313;SDS011;14800;48.174;9.798;2023-08-06T10:06:49;0.70;;;0.10;;
27313;SDS011;14800;48.174;9.798;2023-08-06T10:09:15;0.10;;;0.00;;
27313;SDS011;14800;48.174;9.798;2023-08-06T10:11:40;0.00;;;0.00;;
27313;SDS011;14800;48.174;9.798;2023-08-06T10:14:11;0.20;;;0.03;;
27313;SDS011;14800;48.174;9.798;2023-08-06T10:16:40;0.25;;;0.05;;
27313;SDS011;14800;48.174;9.798;2023-08-06T10:19:07;0.00;;;0.00;;
27313;SDS011;14800;48.174;9.798;2023-08-06T10:21:35;0.05;;;0.05;;
27313;SDS011;14800;48.174;9.798;2023-08-06T10:24:03;0.20;;;0.00;;
27313;SDS011;14800;48.174;9.798;2023-08-06T10:26:35;0.52;;;0.00;;
27313;SDS011;14800;48.174;9.798;2023-08-06T10:29:01;0.80;;;0.10;;
27313;SDS011;14800;48.174;9.798;2023-08-06T10:34:23;1.00;;;0.00;;
27313;SDS011;14800;48.174;9.798;2023-08-06T10:36:49;0.10;;;0.08;;
27313;SDS011;14800;48.174;9.798;2023-08-06T10:39:14;0.00;;;0.00;;
27313;SDS011;14800;48.174;9.798;2023-08-06T10:41:41;0.10;;;0.00;;
27313;SDS011;14800;48.174;9.798;2023-08-06T10:44:09;0.00;;;0.00;;
27313;SDS011;14800;48.174;9.798;2023-08-06T10:46:35;0.03;;;0.00;;
27313;SDS011;14800;48.174;9.798;2023-08-06T10:49:02;0.10;;;0.10;;
27313;SDS011;14800;48.174;9.798;2023-08-06T10:51:29;0.45;;;0.00;;
27313;SDS011;14800;48.174;9.798;2023-08-06T10:53:55;0.05;;;0.00;;
27313;SDS011;14800;48.174;9.798;2023-08-06T10:56:24;1.45;;;0.10;;
27313;SDS011;14800;48.174;9.798;2023-08-06T10:58:51;1.83;;;0.00;;
27313;SDS011;14800;48.174;9.798;2023-08-06T11:01:19;0.22;;;0.08;;
27313;SDS011;14800;48.174;9.798;2023-08-06T11:03:46;0.17;;;0.00;;
27313;SDS011;14800;48.174;9.798;2023-08-06T11:06:20;0.20;;;0.10;;
27313;SDS011;14800;48.174;9.798;2023-08-06T11:08:48;0.30;;;0.00;;
27313;SDS011;14800;48.174;9.798;2023-08-06T11:11:18;0.08;;;0.00;;
27313;SDS011;14800;48.174;9.798;2023-08-06T11:13:45;0.35;;;0.08;;
27313;SDS011;14800;48.174;9.798;2023-08-06T11:16:24;0.35;;;0.20;;
27313;SDS011;14800;48.174;9.798;2023-08-06T11:18:50;0.38;;;0.10;;
27313;SDS011;14800;48.174;9.798;2023-08-06T11:21:19;0.15;;;0.00;;
27313;SDS011;14800;48.174;9.798;2023-08-06T11:23:45;0.10;;;0.00;;
27313;SDS011;14800;48.174;9.798;2023-08-06T11:26:11;0.03;;;0.00;;
27313;SDS011;14800;48.174;9.798;2023-08-06T11:28:36;1.45;;;0.10;;
27313;SDS011;14800;48.174;9.798;2023-08-06T11:31:02;0.00;;;0.00;;
27313;SDS011;14800;48.174;9.798;2023-08-06T11:33:28;0.57;;;0.10;;
27313;SDS011;14800;48.174;9.798;2023-08-06T11:35:55;0.20;;;0.10;;
27313;SDS011;14800;48.174;9.798;2023-08-06T11:38:21;0.00;;;0.00;;
27313;SDS011;14800;48.174;9.798;2023-08-06T11:40:50;0.38;;;0.00;;
27313;SDS011;14800;48.174;9.798;2023-08-06T11:43:17;0.10;;;0.10;;
27313;SDS011;14800;48.174;9.798;2023-08-06T11:45:47;0.10;;;0.00;;
27313;SDS011;14800;48.174;9.798;2023-08-06T11:48:14;0.35;;;0.03;;
27313;SDS011;14800;48.174;9.798;2023-08-06T11:50:39;0.00;;;0.00;;
27313;SDS011;14800;48.174;9.798;2023-08-06T11:53:06;0.10;;;0.08;;
27313;SDS011;14800;48.174;9.798;2023-08-06T11:55:32;0.35;;;0.10;;
27313;SDS011;14800;48.174;9.798;2023-08-06T11:57:58;1.30;;;0.10;;
27313;SDS011;14800;48.174;9.798;2023-08-06T12:00:28;0.45;;;0.00;;
27313;SDS011;14800;48.174;9.798;2023-08-06T12:02:54;0.10;;;0.10;;
27313;SDS011;14800;48.174;9.798;2023-08-06T12:05:21;0.00;;;0.00;;
27313;SDS011;14800;48.174;9.798;2023-08-06T12:07:52;0.40;;;0.10;;
27313;SDS011;14800;48.174;9.798;2023-08-06T12:10:20;0.82;;;0.10;;
27313;SDS011;14800;48.174;9.798;2023-08-06T12:12:47;0.25;;;0.00;;
27313;SDS011;14800;48.174;9.798;2023-08-06T12:15:13;0.00;;;0.00;;
27313;SDS011;14800;48.174;9.798;2023-08-06T12:17:39;0.05;;;0.03;;
27313;SDS011;14800;48.174;9.798;2023-08-06T12:20:05;0.00;;;0.00;;
27313;SDS011;14800;48.174;9.798;2023-08-06T12:22:32;0.10;;;0.10;;
27313;SDS011;14800;48.174;9.798;2023-08-06T12:25:02;0.47;;;0.10;;
27313;SDS011;14800;48.174;9.798;2023-08-06T12:27:32;0.15;;;0.00;;
27313;SDS011;14800;48.174;9.798;2023-08-06T12:30:02;0.15;;;0.15;;
27313;SDS011;14800;48.174;9.798;2023-08-06T12:32:28;0.10;;;0.05;;
27313;SDS011;14800;48.174;9.798;2023-08-06T12:34:54;0.30;;;0.00;;
27313;SDS011;14800;48.174;9.798;2023-08-06T12:37:20;0.43;;;0.10;;
27313;SDS011;14800;48.174;9.798;2023-08-06T12:39:46;0.08;;;0.00;;
27313;SDS011;14800;48.174;9.798;2023-08-06T12:42:12;0.10;;;0.00;;
27313;SDS011;14800;48.174;9.798;2023-08-06T12:44:37;0.10;;;0.10;;
27313;SDS011;14800;48.174;9.798;2023-08-06T12:47:03;0.10;;;0.00;;
27313;SDS011;14800;48.174;9.798;2023-08-06T12:49:28;0.35;;;0.20;;
27313;SDS011;14800;48.174;9.798;2023-08-06T12:51:55;0.13;;;0.00;;
27313;SDS011;14800;48.174;9.798;2023-08-06T12:54:21;0.00;;;0.00;;
27313;SDS011;14800;48.174;9.798;2023-08-06T12:56:48;0.10;;;0.10;;
27313;SDS011;14800;48.174;9.798;2023-08-06T12:59:14;0.30;;;0.05;;
27313;SDS011;14800;48.174;9.798;2023-08-06T13:01:41;0.10;;;0.00;;
27313;SDS011;14800;48.174;9.798;2023-08-06T13:04:07;0.00;;;0.00;;
27313;SDS011;14800;48.174;9.798;2023-08-06T13:06:32;0.50;;;0.10;;
27313;SDS011;14800;48.174;9.798;2023-08-06T13:09:02;0.00;;;0.00;;
27313;SDS011;14800;48.174;9.798;2023-08-06T13:11:31;0.10;;;0.00;;
27313;SDS011;14800;48.174;9.798;2023-08-06T13:14:01;0.10;;;0.08;;
27313;SDS011;14800;48.174;9.798;2023-08-06T13:16:30;0.00;;;0.00;;
27313;SDS011;14800;48.174;9.798;2023-08-06T13:18:55;0.10;;;0.10;;
27313;SDS011;14800;48.174;9.798;2023-08-06T13:21:21;0.25;;;0.20;;
27313;SDS011;14800;48.174;9.798;2023-08-06T13:23:47;0.30;;;0.22;;
27313;SDS011;14800;48.174;9.798;2023-08-06T13:26:12;0.32;;;0.20;;
27313;SDS011;14800;48.174;9.798;2023-08-06T13:28:38;0.52;;;0.20;;
27313;SDS011;14800;48.174;9.798;2023-08-06T13:31:04;0.20;;;0.20;;
27313;SDS011;14800;48.174;9.798;2023-08-06T13:33:29;0.28;;;0.28;;
27313;SDS011;14800;48.174;9.798;2023-08-06T13:35:55;0.38;;;0.38;;
27313;SDS011;14800;48.174;9.798;2023-08-06T13:38:21;0.70;;;0.20;;
27313;SDS011;14800;48.174;9.798;2023-08-06T13:40:46;0.10;;;0.10;;
27313;SDS011;14800;48.174;9.798;2023-08-06T13:43:13;0.17;;;0.17;;
27313;SDS011;14800;48.174;9.798;2023-08-06T13:45:40;1.17;;;0.10;;
27313;SDS011;14800;48.174;9.798;2023-08-06T13:48:06;0.38;;;0.30;;
27313;SDS011;14800;48.174;9.798;2023-08-06T13:50:31;0.40;;;0.20;;
27313;SDS011;14800;48.174;9.798;2023-08-06T13:52:57;0.10;;;0.10;;
27313;SDS011;14800;48.174;9.798;2023-08-06T13:55:23;0.30;;;0.20;;
27313;SDS011;14800;48.174;9.798;2023-08-06T13:57:48;0.15;;;0.10;;
27313;SDS011;14800;48.174;9.798;2023-08-06T14:00:14;0.22;;;0.20;;
27313;SDS011;14800;48.174;9.798;2023-08-06T14:02:40;0.20;;;0.10;;
27313;SDS011;14800;48.174;9.798;2023-08-06T14:05:08;0.20;;;0.10;;
27313;SDS011;14800;48.174;9.798;2023-08-06T14:07:34;0.10;;;0.10;;
27313;SDS011;14800;48.174;9.798;2023-08-06T14:09:59;0.00;;;0.00;;
27313;SDS011;14800;48.174;9.798;2023-08-06T14:12:25;0.00;;;0.00;;
27313;SDS011;14800;48.174;9.798;2023-08-06T14:14:51;0.60;;;0.40;;
27313;SDS011;14800;48.174;9.798;2023-08-06T14:17:16;0.20;;;0.00;;
27313;SDS011;14800;48.174;9.798;2023-08-06T14:19:42;0.00;;;0.00;;
27313;SDS011;14800;48.174;9.798;2023-08-06T14:22:07;0.22;;;0.10;;
27313;SDS011;14800;48.174;9.798;2023-08-06T14:24:33;0.70;;;0.03;;
27313;SDS011;14800;48.174;9.798;2023-08-06T14:26:58;0.25;;;0.03;;
27313;SDS011;14800;48.174;9.798;2023-08-06T14:29:24;0.28;;;0.10;;
27313;SDS011;14800;48.174;9.798;2023-08-06T14:31:50;0.20;;;0.00;;
27313;SDS011;14800;48.174;9.798;2023-08-06T14:34:16;0.10;;;0.00;;
27313;SDS011;14800;48.174;9.798;2023-08-06T14:36:41;0.28;;;0.00;;
27313;SDS011;14800;48.174;9.798;2023-08-06T14:39:07;0.10;;;0.00;;
27313;SDS011;14800;48.174;9.798;2023-08-06T14:41:33;0.82;;;0.05;;
27313;SDS011;14800;48.174;9.798;2023-08-06T14:43:58;0.00;;;0.00;;
27313;SDS011;14800;48.174;9.798;2023-08-06T14:46:24;0.00;;;0.00;;
27313;SDS011;14800;48.174;9.798;2023-08-06T14:48:50;0.10;;;0.00;;
27313;SDS011;14800;48.174;9.798;2023-08-06T14:51:16;0.00;;;0.00;;
27313;SDS011;14800;48.174;9.798;2023-08-06T14:53:44;0.80;;;0.10;;